Airfield :
LOGIN :

Register | Disclaimer

   EN    FR    IT 

 










Legend :    VFR   Marginal VFR   IFR   Intensive IFR   Very Intensive IFR
Visi :
Ceiling :
>= 8 km
>= 3000ft
5 to 8 km
1000 to 3000 ft
1500m to 5 km
500 to 1000 ft
800 to 1500m
200 to 500 ft
< 800m
< 200 ft
Symbols :   Thunderstorms  Fog  Heavy snow  Heavy precipitations  Wind > 20 kt
SIGMETs :     Misc.  Thunderstorms  Icing  Turbulence  Mountain Waves  Volcanic Ashes






- Airport Elevation : 2077 ft
- IATA code : FMM


EDJA - Memmingen

CURRENT METAR :
  • 050350Z AUTO 00000KT 3300 1200 R24/1400U // SCT002/// 07/07 Q1020

EXPIRED METARs :
  • 050320Z AUTO 36003KT 330V030 1000 0900 R24/1100N // FEW002/// 07/07 Q1020
  • 050250Z AUTO 04002KT 4400 0450 R24/0550D // SCT002/// SCT058/// 07/07 Q1020
  • 050220Z AUTO 34002KT 2000 1100 R24/P2000N // SCT051/// 07/07 Q1020
  • 050150Z AUTO 14004KT 8000 1900 // FEW002/// SCT049/// 08/08 Q1020
  • 050120Z AUTO VRB01KT 1000 0650 R24/0900D // FEW003/// 08/08 Q1020

Expired Forecast.



MET'MAP, your aeronautical weather chart ! - Copyright ORBIFLY December 2007 - Disclaimer

ORBIFLY MET'MAP TEAM :

Programming & Development : Alexandra Zaïnal
Concept & original design : Baudouin d'Aumeries
Assistance for programming : Marc-Olivier Méhu
Technical & hardware support : Manuel Goepfert

Contact : metmap@orbifly.com




SOURCES & CREDITS :

   NOAA